createdAt,value
2023-04-25T00:00:49.592Z,0
2023-04-25T00:05:54.690Z,0
2023-04-25T00:11:00.778Z,0
2023-04-25T00:16:06.868Z,0
2023-04-25T00:21:12.958Z,0
2023-04-25T00:26:19.044Z,0
2023-04-25T00:31:25.138Z,0
2023-04-25T00:36:31.230Z,0
2023-04-25T00:41:37.317Z,0
2023-04-25T00:46:43.405Z,0
2023-04-25T00:51:49.492Z,0
2023-04-25T00:56:55.580Z,0
2023-04-25T01:02:01.670Z,0
2023-04-25T01:07:07.786Z,0
2023-04-25T01:12:13.849Z,0
2023-04-25T01:17:18.965Z,0
2023-04-25T01:22:25.051Z,0
2023-04-25T01:27:31.137Z,0
2023-04-25T01:32:37.233Z,0
2023-04-25T01:37:42.349Z,0
2023-04-25T01:42:48.469Z,0
2023-04-25T01:47:53.545Z,0
2023-04-25T01:52:59.659Z,0
2023-04-25T01:58:05.734Z,0
2023-04-25T02:03:11.828Z,0
2023-04-25T02:08:16.930Z,0
2023-04-25T02:13:23.054Z,0
2023-04-25T02:18:28.146Z,0
2023-04-25T02:23:34.228Z,0
2023-04-25T02:28:39.344Z,0
2023-04-25T02:33:45.440Z,0
2023-04-25T02:38:51.521Z,0
2023-04-25T02:43:57.603Z,0
2023-04-25T02:49:03.689Z,0
2023-04-25T02:54:09.785Z,0
2023-04-25T02:59:15.873Z,0
2023-04-25T03:04:21.949Z,0
2023-04-25T03:09:28.058Z,0
2023-04-25T03:14:34.148Z,0
2023-04-25T03:19:40.228Z,0
2023-04-25T03:24:46.329Z,0
2023-04-25T03:29:52.419Z,0
2023-04-25T03:34:58.496Z,0
2023-04-25T03:40:03.632Z,0
2023-04-25T03:45:09.690Z,0
2023-04-25T03:50:15.789Z,0
2023-04-25T03:55:21.920Z,4
2023-04-25T04:00:27.974Z,4
2023-04-25T04:05:34.056Z,8
2023-04-25T04:10:40.142Z,8
2023-04-25T04:15:46.232Z,548
2023-04-25T04:20:52.325Z,544
2023-04-25T04:25:58.414Z,548
2023-04-25T04:31:04.509Z,548
2023-04-25T04:36:10.601Z,552
2023-04-25T04:41:16.681Z,24
2023-04-25T04:46:22.789Z,24
2023-04-25T04:51:28.884Z,24
2023-04-25T04:56:34.957Z,24
2023-04-25T05:01:41.053Z,32
2023-04-25T05:06:47.144Z,32
2023-04-25T05:11:52.250Z,36
2023-04-25T05:16:58.335Z,28
2023-04-25T05:22:03.444Z,28
2023-04-25T05:27:09.527Z,44
2023-04-25T05:32:14.648Z,64
2023-04-25T05:37:20.736Z,60
2023-04-25T05:42:26.822Z,44
2023-04-25T05:47:32.919Z,48
2023-04-25T05:52:39.003Z,40
2023-04-25T06:02:51.171Z,36
2023-04-25T06:07:57.276Z,56
2023-04-25T06:13:03.359Z,68
2023-04-25T06:18:09.446Z,60
2023-04-25T06:23:15.540Z,60
2023-04-25T06:28:21.645Z,64
2023-04-25T06:33:26.799Z,56
2023-04-25T06:38:32.813Z,44
2023-04-25T06:43:38.918Z,80
2023-04-25T06:48:45.046Z,52
2023-04-25T06:53:51.114Z,52
2023-04-25T06:58:57.198Z,44
2023-04-25T07:04:03.283Z,64
2023-04-25T07:09:09.392Z,52
2023-04-25T07:14:15.469Z,56
2023-04-25T07:19:21.563Z,48
2023-04-25T07:24:26.678Z,40
2023-04-25T07:34:38.901Z,92
2023-04-25T07:39:44.952Z,108
2023-04-25T07:44:50.064Z,100
2023-04-25T07:49:55.162Z,72
2023-04-25T07:55:01.245Z,64
2023-04-25T08:00:07.332Z,128
2023-04-25T08:05:13.444Z,128
2023-04-25T08:10:19.526Z,80
2023-04-25T08:15:25.609Z,120
2023-04-25T08:25:37.824Z,224
2023-04-25T08:30:43.904Z,196
2023-04-25T08:35:49.964Z,168
2023-04-25T08:40:56.056Z,180
2023-04-25T08:46:02.324Z,160
2023-04-25T08:51:08.447Z,160
2023-04-25T08:56:13.431Z,116
2023-04-25T09:01:19.436Z,152
2023-04-25T09:06:25.720Z,168
2023-04-25T09:11:31.602Z,164
2023-04-25T09:16:37.880Z,204
2023-04-25T09:21:43.798Z,208
2023-04-25T09:26:50.059Z,160
2023-04-25T09:31:56.116Z,288
2023-04-25T09:37:02.052Z,804
2023-04-25T09:42:08.147Z,752
2023-04-25T09:52:20.557Z,728
2023-04-25T09:57:25.536Z,740
2023-04-25T10:02:31.532Z,740
2023-04-25T10:07:37.646Z,740
2023-04-25T10:12:43.718Z,728
2023-04-25T10:17:49.888Z,752
2023-04-25T10:22:55.905Z,740
2023-04-25T10:28:01.983Z,800
2023-04-25T10:33:08.079Z,708
2023-04-25T10:38:14.182Z,696
2023-04-25T10:43:20.298Z,648
2023-04-25T10:48:26.395Z,676
2023-04-25T10:53:31.645Z,788
2023-04-25T10:58:37.578Z,784
2023-04-25T11:03:43.774Z,716
2023-04-25T11:08:49.747Z,652
2023-04-25T11:13:54.999Z,632
2023-04-25T11:19:01.128Z,620
2023-04-25T11:24:07.259Z,612
2023-04-25T11:29:13.289Z,620
2023-04-25T11:34:19.348Z,628
2023-04-25T11:39:25.388Z,664
2023-04-25T11:44:31.579Z,732
2023-04-25T11:49:37.470Z,748
2023-04-25T11:54:43.551Z,708
2023-04-25T11:59:49.787Z,720
2023-04-25T12:04:55.859Z,708
2023-04-25T12:10:02.595Z,712
2023-04-25T12:15:08.002Z,772
2023-04-25T12:20:14.205Z,764
2023-04-25T12:25:20.242Z,780
2023-04-25T12:30:26.218Z,816
2023-04-25T12:35:32.372Z,760
2023-04-25T12:40:38.519Z,736
2023-04-25T12:45:44.501Z,696
2023-04-25T12:50:50.603Z,684
2023-04-25T13:01:02.913Z,704
2023-04-25T13:06:09.018Z,720
2023-04-25T13:11:15.070Z,792
2023-04-25T13:16:21.186Z,956
2023-04-25T13:21:27.283Z,864
2023-04-25T13:26:33.396Z,836
2023-04-25T13:31:39.458Z,772
2023-04-25T13:36:44.414Z,704
2023-04-25T13:41:50.517Z,740
2023-04-25T13:46:56.737Z,796
2023-04-25T13:52:02.651Z,672
2023-04-25T13:57:08.732Z,644
2023-04-25T14:02:14.948Z,624
2023-04-25T14:07:19.944Z,604
2023-04-25T14:12:25.047Z,604
2023-04-25T14:17:31.324Z,596
2023-04-25T14:22:37.216Z,600
2023-04-25T14:27:43.327Z,616
2023-04-25T14:32:49.394Z,648
2023-04-25T14:37:55.504Z,688
2023-04-25T14:43:01.713Z,772
2023-04-25T14:48:07.676Z,1432
2023-04-25T14:53:13.780Z,740
2023-04-25T14:58:19.910Z,632
2023-04-25T15:03:26.082Z,644
2023-04-25T15:08:32.104Z,620
2023-04-25T15:13:38.174Z,616
2023-04-25T15:18:43.356Z,644
2023-04-25T15:23:49.318Z,664
2023-04-25T15:28:55.554Z,868
2023-04-25T15:34:01.593Z,796
2023-04-25T15:39:07.618Z,696
2023-04-25T15:44:13.700Z,656
2023-04-25T15:49:19.820Z,616
2023-04-25T15:54:26.031Z,608
2023-04-25T15:59:31.947Z,600
2023-04-25T16:04:38.049Z,588
2023-04-25T16:09:44.190Z,580
2023-04-25T16:14:50.218Z,564
2023-04-25T16:19:56.318Z,576
2023-04-25T16:25:02.517Z,576
2023-04-25T16:30:08.494Z,564
2023-04-25T16:35:13.668Z,556
2023-04-25T16:40:18.854Z,20
2023-04-25T16:45:24.784Z,24
2023-04-25T16:50:29.947Z,32
2023-04-25T16:55:35.014Z,96
2023-04-25T17:00:41.097Z,128
2023-04-25T17:05:47.252Z,72
2023-04-25T17:10:53.344Z,48
2023-04-25T17:15:59.377Z,56
2023-04-25T17:21:05.471Z,60
2023-04-25T17:26:11.557Z,44
2023-04-25T17:31:17.633Z,36
2023-04-25T17:36:23.735Z,32
2023-04-25T17:41:29.820Z,32
2023-04-25T17:46:35.906Z,20
2023-04-25T17:51:42.000Z,20
2023-04-25T17:56:48.085Z,12
2023-04-25T18:01:54.296Z,8
2023-04-25T18:07:00.310Z,4
2023-04-25T18:12:05.515Z,0
2023-04-25T18:17:11.458Z,0
2023-04-25T18:22:17.545Z,0
2023-04-25T18:27:23.692Z,0
2023-04-25T18:32:29.731Z,0
2023-04-25T18:37:35.844Z,0
2023-04-25T18:42:41.919Z,0
2023-04-25T18:47:48.008Z,0
2023-04-25T18:52:54.090Z,0
2023-04-25T18:58:00.206Z,0
2023-04-25T19:03:06.355Z,0
2023-04-25T19:08:12.369Z,0
2023-04-25T19:13:17.481Z,0
2023-04-25T19:18:23.558Z,0
2023-04-25T19:23:29.656Z,0
2023-04-25T19:28:35.757Z,0
2023-04-25T19:33:41.872Z,0
2023-04-25T19:38:47.925Z,0
2023-04-25T19:43:54.162Z,0
2023-04-25T19:49:00.189Z,0
2023-04-25T19:54:05.219Z,0
2023-04-25T19:59:11.313Z,0
2023-04-25T20:04:17.390Z,0
2023-04-25T20:09:23.488Z,0
2023-04-25T20:14:29.575Z,0
2023-04-25T20:19:35.665Z,0
2023-04-25T20:24:41.781Z,0
2023-04-25T20:29:47.929Z,0
2023-04-25T20:34:53.931Z,0
2023-04-25T20:40:00.048Z,0
2023-04-25T20:45:06.173Z,0
2023-04-25T20:50:12.291Z,0
2023-04-25T20:55:18.287Z,0
2023-04-25T21:00:24.468Z,0
2023-04-25T21:05:29.510Z,0
2023-04-25T21:10:35.577Z,0
2023-04-25T21:15:41.700Z,0
2023-04-25T21:20:47.814Z,0
2023-04-25T21:25:53.850Z,0
2023-04-25T21:30:59.953Z,0
2023-04-25T21:36:06.070Z,0
2023-04-25T21:41:11.260Z,0
2023-04-25T21:46:17.256Z,0
2023-04-25T21:51:22.338Z,0
2023-04-25T21:56:28.435Z,0
2023-04-25T22:01:33.549Z,0
2023-04-25T22:06:38.679Z,0
2023-04-25T22:11:44.756Z,0
2023-04-25T22:16:50.838Z,0
2023-04-25T22:21:56.915Z,0
2023-04-25T22:27:03.040Z,0
2023-04-25T22:32:09.110Z,0
2023-04-25T22:37:15.189Z,0
2023-04-25T22:42:21.283Z,0
2023-04-25T22:47:27.361Z,0
2023-04-25T22:52:33.465Z,0
2023-04-25T22:57:39.552Z,0
2023-04-25T23:02:45.631Z,0
2023-04-25T23:07:51.724Z,0
2023-04-25T23:12:57.813Z,0
2023-04-25T23:18:03.910Z,0
2023-04-25T23:23:10.069Z,0
2023-04-25T23:28:16.075Z,0
2023-04-25T23:33:22.179Z,0
2023-04-25T23:38:28.320Z,0
2023-04-25T23:43:34.394Z,0
2023-04-25T23:48:40.496Z,0
2023-04-25T23:53:46.603Z,0
2023-04-25T23:58:51.669Z,0
